Time;durP1;ratioP1;P1;durP2;ratioP2;P2;SDS_P1;SDS_P2;PMS_P1;PMS_P2;Temp;Humidity;BMP_temperature;BMP_pressure;BME280_temperature;BME280_humidity;BME280_pressure;Samples;Min_cycle;Max_cycle;Signal;HPM_P1;HPM_P2
2023/10/04 00:01:37;;;;;;;9.73;2.72;;;;;;;13.40;92.83;102394.81;5093373;28;20040;-62
2023/10/04 00:04:03;;;;;;;15.82;3.15;;;;;;;13.42;93.29;102405.50;5093399;28;20082;-61
2023/10/04 00:06:31;;;;;;;10.75;3.10;;;;;;;13.40;93.55;102408.09;5093180;28;20024;-62
2023/10/04 00:08:56;;;;;;;12.15;2.80;;;;;;;13.39;93.54;102400.09;5093275;28;20383;-62
2023/10/04 00:11:22;;;;;;;10.85;2.90;;;;;;;13.42;93.76;102403.75;5093508;28;20032;-62
2023/10/04 00:13:47;;;;;;;10.30;2.97;;;;;;;13.39;93.88;102408.97;5093229;28;20024;-61
2023/10/04 00:16:13;;;;;;;11.68;3.15;;;;;;;13.40;93.79;102409.84;5093447;28;20366;-62
2023/10/04 00:18:38;;;;;;;9.68;2.78;;;;;;;13.43;93.79;102409.94;5092170;28;20488;-62
2023/10/04 00:21:06;;;;;;;8.82;3.00;;;;;;;13.43;93.41;102402.88;5093162;28;20039;-62
2023/10/04 00:23:32;;;;;;;12.60;3.38;;;;;;;13.43;93.53;102413.50;5092181;28;20111;-62
2023/10/04 00:25:57;;;;;;;7.50;2.70;;;;;;;13.44;93.61;102412.63;5093019;28;20052;-62
2023/10/04 00:28:22;;;;;;;11.65;2.92;;;;;;;13.43;93.86;102416.16;5092940;28;20046;-61
2023/10/04 00:30:48;;;;;;;11.18;3.20;;;;;;;13.43;93.86;102415.25;5096841;28;20073;-62
2023/10/04 00:33:13;;;;;;;9.68;3.20;;;;;;;13.43;94.02;102410.84;5099781;28;20024;-62
2023/10/04 00:35:40;;;;;;;10.95;2.78;;;;;;;13.44;94.26;102409.06;5099717;28;20038;-62
2023/10/04 00:38:08;;;;;;;8.80;2.70;;;;;;;13.42;94.27;102406.38;5099788;28;20036;-62
2023/10/04 00:40:33;;;;;;;12.60;3.35;;;;;;;13.45;94.25;102408.25;5099566;28;20054;-62
2023/10/04 00:43:05;;;;;;;7.85;2.80;;;;;;;13.48;94.03;102408.28;5099482;28;20036;-62
2023/10/04 00:45:33;;;;;;;8.20;2.78;;;;;;;13.50;94.08;102407.47;5099984;28;20158;-62
2023/10/04 00:48:02;;;;;;;12.98;3.00;;;;;;;13.52;93.88;102407.50;5099494;28;20028;-61
2023/10/04 00:50:32;;;;;;;8.13;2.80;;;;;;;13.54;93.67;102408.44;5099929;28;20358;-62
2023/10/04 00:53:08;;;;;;;10.80;3.17;;;;;;;13.51;94.01;102414.56;5099502;28;20027;-61
2023/10/04 00:55:40;;;;;;;7.45;2.90;;;;;;;13.50;93.91;102420.75;5099945;28;20024;-62
2023/10/04 00:58:08;;;;;;;10.68;2.85;;;;;;;13.45;94.29;102416.19;5099504;28;20464;-61
2023/10/04 01:00:35;;;;;;;10.90;3.25;;;;;;;13.44;94.58;102428.56;5099804;28;20054;-62
2023/10/04 01:03:01;;;;;;;10.70;2.97;;;;;;;13.44;94.65;102432.97;5099527;28;20526;-61
2023/10/04 01:05:27;;;;;;;11.60;3.22;;;;;;;13.46;94.46;102434.81;5099834;28;20032;-62
2023/10/04 01:07:53;;;;;;;10.05;3.10;;;;;;;13.47;94.67;102431.28;5099691;28;20035;-62
2023/10/04 01:10:24;;;;;;;11.63;3.10;;;;;;;13.45;94.64;102432.13;5099407;28;20020;-62
2023/10/04 01:12:51;;;;;;;15.32;3.42;;;;;;;13.43;94.78;102437.38;5099317;28;20036;-61
2023/10/04 01:15:30;;;;;;;12.43;3.42;;;;;;;13.43;94.88;102431.19;5099765;28;20393;-62
2023/10/04 01:17:59;;;;;;;13.30;3.15;;;;;;;13.42;94.78;102434.72;5099875;28;20039;-61
2023/10/04 01:20:28;;;;;;;11.43;3.33;;;;;;;13.36;94.98;102426.56;5099607;28;20028;-61
2023/10/04 01:23:07;;;;;;;12.23;3.45;;;;;;;13.35;95.33;102446.91;5099599;28;20020;-62
2023/10/04 01:25:33;;;;;;;14.30;3.25;;;;;;;13.36;94.93;102438.13;5099323;28;20039;-62
2023/10/04 01:28:08;;;;;;;12.75;2.90;;;;;;;13.35;95.11;102441.59;5097887;28;20052;-62
2023/10/04 01:30:36;;;;;;;7.85;2.80;;;;;;;13.38;95.21;102451.41;5099230;28;20035;-62
2023/10/04 01:33:03;;;;;;;8.38;3.20;;;;;;;13.32;95.52;102440.63;5099258;28;20060;-62
2023/10/04 01:35:29;;;;;;;10.85;3.20;;;;;;;13.25;95.63;102436.94;5099249;28;20043;-62
2023/10/04 01:37:54;;;;;;;12.82;3.13;;;;;;;13.26;95.61;102441.38;5099157;28;20039;-63
2023/10/04 01:40:25;;;;;;;10.40;3.17;;;;;;;13.28;95.69;102445.88;5099023;28;20052;-62
2023/10/04 01:42:52;;;;;;;11.65;3.40;;;;;;;13.25;95.88;102442.25;5094342;28;20035;-62
2023/10/04 01:45:18;;;;;;;11.82;3.17;;;;;;;13.30;95.81;102445.03;5096193;28;20028;-62
2023/10/04 01:47:45;;;;;;;11.73;3.15;;;;;;;13.31;95.75;102452.13;5096077;28;20469;-62
2023/10/04 01:50:11;;;;;;;11.23;3.03;;;;;;;13.28;95.96;102451.19;5095952;28;20019;-62
2023/10/04 01:52:38;;;;;;;14.23;3.35;;;;;;;13.26;95.75;102444.03;5096031;28;20524;-62
2023/10/04 01:55:05;;;;;;;9.13;3.15;;;;;;;13.25;95.97;102453.75;5096024;28;20036;-61
2023/10/04 01:57:35;;;;;;;11.10;3.10;;;;;;;13.24;96.22;102451.97;5096001;28;20039;-62
2023/10/04 02:00:01;;;;;;;10.20;3.10;;;;;;;13.27;95.96;102456.44;5094303;28;20035;-62
2023/10/04 02:02:27;;;;;;;11.07;3.00;;;;;;;13.28;96.00;102450.31;5095561;28;20127;-62
2023/10/04 02:04:53;;;;;;;10.43;3.50;;;;;;;13.31;96.00;102446.81;5095701;28;20024;-62
2023/10/04 02:07:23;;;;;;;13.98;3.72;;;;;;;13.33;95.81;102453.06;5095687;28;20074;-61
2023/10/04 02:09:51;;;;;;;10.23;2.95;;;;;;;13.34;95.85;102445.13;5095687;28;20020;-62
2023/10/04 02:12:18;;;;;;;12.60;3.38;;;;;;;13.35;95.56;102435.41;5095416;28;20055;-62
2023/10/04 02:14:46;;;;;;;10.55;2.92;;;;;;;13.31;95.80;102431.78;5095361;28;20031;-62
2023/10/04 02:17:15;;;;;;;10.35;3.10;;;;;;;13.31;95.55;102436.19;5095371;28;20085;-62
2023/10/04 02:19:41;;;;;;;10.90;2.90;;;;;;;13.29;95.91;102438.81;5095548;28;20028;-63
2023/10/04 02:22:07;;;;;;;14.07;3.08;;;;;;;13.26;95.96;102434.31;5094168;28;20431;-62
2023/10/04 02:24:32;;;;;;;10.40;3.20;;;;;;;13.26;96.06;102446.69;5095474;28;20103;-62
2023/10/04 02:27:01;;;;;;;12.55;3.70;;;;;;;13.24;96.15;102446.66;5095329;28;20385;-62
2023/10/04 02:29:27;;;;;;;9.48;2.85;;;;;;;13.22;96.20;102432.44;5095147;28;20032;-62
2023/10/04 02:31:53;;;;;;;9.80;3.17;;;;;;;13.20;96.53;102435.91;5095260;28;20133;-62
2023/10/04 02:34:19;;;;;;;12.18;3.22;;;;;;;13.21;96.24;102427.97;5095368;28;20115;-62
2023/10/04 02:36:45;;;;;;;9.65;3.25;;;;;;;13.21;96.65;102432.38;5095370;28;20129;-62
2023/10/04 02:39:11;;;;;;;10.02;3.22;;;;;;;13.20;96.67;102428.81;5095017;28;20065;-62
2023/10/04 02:41:37;;;;;;;11.52;3.25;;;;;;;13.18;96.63;102432.28;5094700;28;20430;-62
2023/10/04 02:44:02;;;;;;;12.57;3.25;;;;;;;13.20;96.58;102436.78;5094583;28;20355;-62
2023/10/04 02:46:28;;;;;;;10.60;3.28;;;;;;;13.21;96.48;102448.31;5094857;28;20028;-62
2023/10/04 02:48:54;;;;;;;10.55;3.22;;;;;;;13.25;96.59;102444.91;5094645;28;20514;-62
2023/10/04 02:51:20;;;;;;;13.18;3.33;;;;;;;13.21;96.71;102445.66;5094720;28;20025;-62
2023/10/04 02:53:45;;;;;;;13.40;3.08;;;;;;;13.24;96.60;102451.06;5094508;28;20511;-62
2023/10/04 02:56:11;;;;;;;13.48;3.15;;;;;;;13.23;96.57;102450.19;5094460;28;20032;-62
2023/10/04 02:58:36;;;;;;;9.77;3.47;;;;;;;13.20;96.53;102442.09;5094653;28;20028;-62
2023/10/04 03:01:03;;;;;;;11.93;3.03;;;;;;;13.22;96.27;102452.75;5094723;28;20114;-61
2023/10/04 03:03:30;;;;;;;11.60;3.30;;;;;;;13.21;96.58;102457.16;5094500;28;20050;-62
2023/10/04 03:05:56;;;;;;;11.68;3.17;;;;;;;13.18;96.79;102448.22;5094329;28;20590;-62
2023/10/04 03:08:23;;;;;;;13.00;3.55;;;;;;;13.18;96.55;102453.53;5094617;28;20040;-62
2023/10/04 03:10:55;;;;;;;12.20;3.50;;;;;;;13.17;96.62;102457.94;5094249;28;20024;-62
2023/10/04 03:13:27;;;;;;;12.93;3.42;;;;;;;13.13;96.70;102463.13;5094342;28;20028;-62
2023/10/04 03:15:53;;;;;;;;;;;;;;;13.21;95.74;102462.47;5094757;28;20036;-62
2023/10/04 03:18:19;;;;;;;10.63;3.00;;;;;;;13.17;96.16;102465.00;5094097;28;19915;-62
2023/10/04 03:21:08;;;;;;;10.23;3.38;;;;;;;13.16;96.20;102466.78;5094130;28;20036;-62
2023/10/04 03:23:35;;;;;;;11.00;3.45;;;;;;;13.11;96.15;102473.72;5094476;28;20073;-61
2023/10/04 03:26:04;;;;;;;9.57;2.92;;;;;;;13.11;96.35;102480.78;5093865;28;20028;-63
2023/10/04 03:28:33;;;;;;;13.40;3.55;;;;;;;13.07;96.25;102468.28;5094065;28;20032;-61
2023/10/04 03:31:03;;;;;;;9.50;3.22;;;;;;;13.01;96.62;102472.56;5094291;28;20059;-62
2023/10/04 03:33:31;;;;;;;12.00;3.40;;;;;;;13.00;96.66;102483.13;5094156;28;20056;-62
2023/10/04 03:35:58;;;;;;;10.70;3.10;;;;;;;12.93;97.12;102487.41;5094078;28;20040;-62
2023/10/04 03:38:25;;;;;;;11.10;3.20;;;;;;;12.89;96.98;102476.63;5093724;28;20469;-62
2023/10/04 03:40:51;;;;;;;14.57;3.25;;;;;;;12.87;97.23;102484.56;5092534;28;20102;-62
2023/10/04 03:43:17;;;;;;;17.45;3.13;;;;;;;12.83;97.43;102474.72;5093611;28;20024;-62
2023/10/04 03:45:42;;;;;;;14.32;3.45;;;;;;;12.82;97.13;102467.63;5093713;28;20526;-61
2023/10/04 03:48:17;;;;;;;9.48;3.40;;;;;;;12.81;97.07;102467.59;5093582;28;20032;-63
2023/10/04 03:50:46;;;;;;;13.75;3.00;;;;;;;12.79;97.39;102467.53;5093615;28;20081;-62
2023/10/04 03:53:13;;;;;;;8.82;3.10;;;;;;;12.76;97.22;102463.06;5093810;28;20047;-62
2023/10/04 03:55:38;;;;;;;14.18;3.58;;;;;;;12.75;97.51;102471.84;5092481;28;20031;-62
2023/10/04 03:58:04;;;;;;;13.07;3.40;;;;;;;12.73;97.66;102460.31;5093781;28;20024;-62
2023/10/04 04:00:33;;;;;;;14.82;3.47;;;;;;;12.66;97.67;102457.44;5093330;28;20423;-63
2023/10/04 04:02:59;;;;;;;14.48;3.15;;;;;;;12.63;98.12;102458.22;5093378;28;20035;-62
2023/10/04 04:05:25;;;;;;;14.90;3.70;;;;;;;12.56;98.11;102450.09;5092837;28;20024;-62
2023/10/04 04:07:52;;;;;;;13.40;3.38;;;;;;;12.62;98.25;102458.19;5092079;28;20077;-62
2023/10/04 04:10:19;;;;;;;13.20;3.60;;;;;;;12.58;98.33;102462.50;5093292;28;20101;-62
2023/10/04 04:12:46;;;;;;;10.18;3.20;;;;;;;12.56;98.36;102461.59;5091804;28;20032;-62
2023/10/04 04:15:13;;;;;;;13.13;3.53;;;;;;;12.53;98.41;102465.03;5093394;28;20032;-62
2023/10/04 04:17:41;;;;;;;13.13;3.50;;;;;;;12.48;98.93;102460.47;5093568;28;20024;-62
2023/10/04 04:20:14;;;;;;;12.95;3.60;;;;;;;12.48;98.83;102458.72;5092325;28;20111;-62
2023/10/04 04:22:50;;;;;;;10.43;3.70;;;;;;;12.47;99.03;102458.69;5093496;28;20028;-62
2023/10/04 04:25:26;;;;;;;11.13;3.63;;;;;;;12.44;99.22;102462.13;5093513;28;20020;-62
2023/10/04 04:27:53;;;;;;;9.77;3.33;;;;;;;12.38;99.39;102453.13;5093057;28;20036;-62
2023/10/04 04:30:23;;;;;;;12.38;3.45;;;;;;;12.33;99.79;102449.41;5093202;28;20024;-62
2023/10/04 04:32:52;;;;;;;20.35;3.40;;;;;;;12.35;99.61;102458.31;5093365;28;20028;-62
2023/10/04 04:35:25;;;;;;;13.75;3.40;;;;;;;12.35;99.75;102451.25;5093277;28;20028;-62
2023/10/04 04:37:55;;;;;;;11.70;3.40;;;;;;;12.35;99.78;102448.59;5093335;28;20033;-62
2023/10/04 04:40:30;;;;;;;11.38;3.40;;;;;;;12.32;99.48;102452.91;5093165;28;20043;-62
2023/10/04 04:43:14;;;;;;;14.55;3.35;;;;;;;12.30;99.60;102457.28;5093113;28;20028;-62
2023/10/04 04:45:48;;;;;;;12.13;3.42;;;;;;;12.32;99.44;102456.47;5093351;28;20127;-62
2023/10/04 04:48:15;;;;;;;10.45;3.75;;;;;;;12.27;99.81;102461.63;5093155;28;20059;-62
2023/10/04 04:50:41;;;;;;;10.32;3.33;;;;;;;12.22;100.00;102446.47;5093187;28;20114;-62
2023/10/04 04:53:11;;;;;;;13.18;3.38;;;;;;;12.19;100.00;102452.56;5093227;28;20032;-62
2023/10/04 04:55:36;;;;;;;13.15;3.58;;;;;;;12.04;100.00;102425.63;5092943;28;20105;-61
2023/10/04 04:58:02;;;;;;;14.20;4.00;;;;;;;12.13;100.00;102452.38;5092831;28;20505;-62
2023/10/04 05:00:33;;;;;;;12.07;3.25;;;;;;;12.11;100.00;102448.78;5092665;28;20393;-62
2023/10/04 05:03:00;;;;;;;12.88;3.97;;;;;;;12.03;100.00;102452.94;5092871;28;20032;-62
2023/10/04 05:05:28;;;;;;;11.35;3.60;;;;;;;12.00;100.00;102450.22;5092751;28;20028;-62
2023/10/04 05:07:53;;;;;;;10.35;3.53;;;;;;;12.01;100.00;102458.19;5092602;28;20481;-62
2023/10/04 05:10:20;;;;;;;11.48;3.47;;;;;;;12.02;100.00;102460.00;5091285;28;20036;-62
2023/10/04 05:12:46;;;;;;;14.88;3.60;;;;;;;12.00;100.00;102474.06;5091233;28;20115;-61
2023/10/04 05:17:56;;;;;;;13.13;3.35;;;;;;;12.02;100.00;102481.19;5094863;28;20109;-63
2023/10/04 05:20:21;;;;;;;15.05;3.60;;;;;;;12.00;100.00;102493.50;5096424;28;20032;-62
2023/10/04 05:22:49;;;;;;;12.00;3.67;;;;;;;12.05;100.00;102506.00;5096277;28;20107;-63
2023/10/04 05:25:20;;;;;;;8.80;3.35;;;;;;;12.01;100.00;102502.34;5096573;28;20029;-62
2023/10/04 05:27:47;;;;;;;15.05;3.70;;;;;;;12.01;100.00;102507.63;5096144;28;20028;-62
2023/10/04 05:30:16;;;;;;;9.05;3.60;;;;;;;12.00;100.00;102493.50;5096295;28;20028;-62
2023/10/04 05:32:42;;;;;;;20.60;3.85;;;;;;;12.00;100.00;102501.44;5096476;28;20077;-62
2023/10/04 05:35:12;;;;;;;12.48;3.72;;;;;;;11.96;100.00;102503.97;5096154;28;20096;-63
2023/10/04 05:37:41;;;;;;;16.58;3.70;;;;;;;11.79;100.00;102480.44;5096251;28;20084;-62
2023/10/04 05:40:17;;;;;;;9.90;3.63;;;;;;;11.79;100.00;102498.09;5096166;28;20056;-62
2023/10/04 05:42:44;;;;;;;13.40;4.03;;;;;;;11.78;100.00;102506.88;5096198;28;20052;-61
2023/10/04 05:45:11;;;;;;;10.77;3.75;;;;;;;11.76;100.00;102513.88;5095017;28;20122;-61
2023/10/04 05:47:37;;;;;;;11.38;3.65;;;;;;;11.76;100.00;102513.88;5095449;28;20031;-62
2023/10/04 05:50:05;;;;;;;11.20;3.80;;;;;;;11.78;100.00;102520.13;5095489;28;20024;-62
2023/10/04 05:52:32;;;;;;;15.10;3.47;;;;;;;11.74;100.00;102524.41;5095431;28;20024;-62
2023/10/04 05:54:58;;;;;;;8.07;3.45;;;;;;;11.77;100.00;102526.25;5095441;28;20036;-62
2023/10/04 05:57:24;;;;;;;15.55;3.40;;;;;;;11.75;100.00;102527.97;5095431;28;20024;-63
2023/10/04 05:59:49;;;;;;;16.05;3.53;;;;;;;11.75;100.00;102526.22;5095226;28;20051;-62
2023/10/04 06:02:15;;;;;;;14.63;3.88;;;;;;;11.78;100.00;102528.06;5095319;28;20059;-62
2023/10/04 06:04:42;;;;;;;13.50;3.50;;;;;;;11.82;100.00;102526.41;5095233;28;20032;-62
2023/10/04 06:07:08;;;;;;;13.40;3.80;;;;;;;11.85;100.00;102527.44;5094861;28;20039;-62
2023/10/04 06:09:34;;;;;;;9.10;3.50;;;;;;;11.90;100.00;102531.13;5095493;28;20110;-63
2023/10/04 06:12:01;;;;;;;15.77;3.55;;;;;;;11.90;100.00;102530.22;5095254;28;20126;-62
2023/10/04 06:14:27;;;;;;;12.40;3.70;;;;;;;11.92;100.00;102532.09;5094726;28;20029;-61
2023/10/04 06:16:53;;;;;;;9.02;3.45;;;;;;;11.96;100.00;102541.94;5095083;28;20035;-63
2023/10/04 06:19:24;;;;;;;14.15;3.50;;;;;;;11.99;100.00;102533.16;5095105;28;20051;-63
2023/10/04 06:21:52;;;;;;;11.88;3.63;;;;;;;12.01;100.00;102540.34;5095155;28;20039;-62
2023/10/04 06:24:17;;;;;;;11.52;4.00;;;;;;;12.05;100.00;102541.34;5093628;28;20032;-62
2023/10/04 06:26:43;;;;;;;11.27;3.40;;;;;;;12.10;100.00;102546.78;5094992;28;20030;-62
2023/10/04 06:29:08;;;;;;;11.82;3.80;;;;;;;12.17;100.00;102547.03;5094201;28;20554;-63
2023/10/04 06:31:33;;;;;;;14.73;4.13;;;;;;;12.26;100.00;102543.75;5094797;28;20063;-62
2023/10/04 06:34:01;;;;;;;11.68;3.65;;;;;;;12.31;100.00;102555.41;5093385;28;20461;-62
2023/10/04 06:36:26;;;;;;;10.20;3.42;;;;;;;12.37;99.95;102552.91;5094998;28;20043;-61
2023/10/04 06:38:55;;;;;;;13.38;3.75;;;;;;;12.45;99.88;102553.16;5094641;28;20135;-62
2023/10/04 06:41:24;;;;;;;13.55;3.50;;;;;;;12.57;99.70;102558.84;5094584;28;20503;-62
2023/10/04 06:43:49;;;;;;;14.55;3.70;;;;;;;12.64;98.85;102558.19;5094288;28;20390;-62
2023/10/04 06:46:15;;;;;;;10.73;3.50;;;;;;;12.76;99.09;102557.63;5093158;28;20481;-62
2023/10/04 06:48:41;;;;;;;10.45;3.50;;;;;;;12.90;98.30;102569.56;5094368;28;20070;-62
2023/10/04 06:51:06;;;;;;;13.68;3.88;;;;;;;12.99;97.45;102564.50;5094592;28;20123;-62
2023/10/04 06:53:33;;;;;;;15.13;3.70;;;;;;;13.08;97.33;102562.97;5094463;28;20055;-62
2023/10/04 06:55:59;;;;;;;13.45;3.80;;;;;;;13.16;96.48;102574.69;5094155;28;20032;-62
2023/10/04 06:58:25;;;;;;;12.18;3.70;;;;;;;13.21;96.25;102567.75;5094000;28;20373;-62
2023/10/04 07:00:50;;;;;;;14.65;3.42;;;;;;;13.32;95.93;102569.00;5094278;28;20020;-62
2023/10/04 07:03:15;;;;;;;11.75;3.47;;;;;;;13.43;95.55;102572.81;5092795;28;20103;-62
2023/10/04 07:05:42;;;;;;;10.05;3.63;;;;;;;13.57;94.93;102565.22;5094031;28;20392;-63
2023/10/04 07:08:12;;;;;;;14.75;3.47;;;;;;;13.64;94.30;102567.16;5094055;28;20028;-62
2023/10/04 07:10:38;;;;;;;15.98;4.38;;;;;;;13.77;94.23;102563.97;5094157;28;20032;-61
2023/10/04 07:13:05;;;;;;;11.57;4.00;;;;;;;13.80;93.80;102568.47;5093875;28;20508;-62
2023/10/04 07:15:35;;;;;;;11.73;3.60;;;;;;;13.97;93.85;102569.78;5094079;28;20066;-63
2023/10/04 07:18:02;;;;;;;12.82;3.80;;;;;;;14.10;93.12;102563.00;5094249;28;20434;-63
2023/10/04 07:20:27;;;;;;;11.88;3.80;;;;;;;14.15;92.10;102564.00;5093886;28;20469;-62
2023/10/04 07:23:03;;;;;;;14.93;3.92;;;;;;;14.28;92.31;102571.41;5092725;28;20035;-63
2023/10/04 07:25:32;;;;;;;15.68;4.03;;;;;;;14.35;90.80;102564.47;5094124;28;20036;-62
2023/10/04 07:28:01;;;;;;;14.07;4.28;;;;;;;14.45;91.34;102566.47;5093933;28;20036;-62
2023/10/04 07:30:27;;;;;;;15.63;4.30;;;;;;;14.41;90.60;102574.34;5093620;28;20032;-62
2023/10/04 07:32:53;;;;;;;12.23;3.67;;;;;;;14.56;90.81;102577.41;5093591;28;20031;-62
2023/10/04 07:35:25;;;;;;;17.35;3.80;;;;;;;14.66;90.33;102578.47;5093728;28;20024;-62
2023/10/04 07:37:51;;;;;;;11.57;4.10;;;;;;;14.82;90.69;102571.69;5093579;28;20040;-62
2023/10/04 07:40:17;;;;;;;17.08;3.80;;;;;;;14.99;89.67;102575.66;5092577;28;20023;-62
2023/10/04 07:42:51;;;;;;;9.05;3.38;;;;;;;15.13;88.68;102579.47;5093511;28;20040;-62
2023/10/04 07:45:18;;;;;;;12.27;4.00;;;;;;;15.21;87.83;102582.28;5093341;28;20122;-62
2023/10/04 07:47:43;;;;;;;11.63;4.10;;;;;;;15.23;87.89;102586.75;5093353;28;20056;-61
2023/10/04 07:50:15;;;;;;;11.68;3.90;;;;;;;15.27;87.88;102587.72;5093386;28;20100;-62
2023/10/04 07:52:42;;;;;;;15.20;3.80;;;;;;;15.44;87.20;102594.25;5093266;28;20031;-62
2023/10/04 07:55:14;;;;;;;18.65;3.92;;;;;;;15.49;86.90;102600.56;5093520;28;20044;-62
2023/10/04 07:57:42;;;;;;;14.43;3.90;;;;;;;15.63;86.72;102599.91;5093224;28;20067;-62
2023/10/04 08:00:13;;;;;;;12.80;3.97;;;;;;;15.75;86.14;102597.50;5093272;28;20055;-63
2023/10/04 08:02:45;;;;;;;15.85;4.00;;;;;;;15.87;85.61;102611.06;5093173;28;20469;-62
2023/10/04 08:05:11;;;;;;;;;;;;;;;15.91;86.15;102606.69;5093510;28;20031;-62
2023/10/04 08:07:37;;;;;;;15.10;3.85;;;;;;;15.93;84.73;102604.91;5093090;28;20270;-62
2023/10/04 08:10:03;;;;;;;16.55;4.18;;;;;;;16.02;85.13;102606.00;5092913;28;20030;-62
2023/10/04 08:12:29;;;;;;;13.40;3.90;;;;;;;16.05;83.89;102610.47;5093241;28;20028;-63
2023/10/04 08:14:58;;;;;;;17.20;4.45;;;;;;;16.02;84.92;102607.75;5092688;28;20043;-62
2023/10/04 08:17:23;;;;;;;14.32;4.63;;;;;;;15.95;84.32;102596.09;5093251;28;20106;-63
2023/10/04 08:19:49;;;;;;;13.68;4.47;;;;;;;16.13;85.28;102603.47;5092921;28;20448;-63
2023/10/04 08:22:15;;;;;;;14.10;4.20;;;;;;;16.13;84.54;102603.47;5092940;28;20023;-62
2023/10/04 08:24:41;;;;;;;13.88;3.85;;;;;;;16.22;84.36;102608.97;5092781;28;20428;-62
2023/10/04 08:27:06;;;;;;;13.43;3.95;;;;;;;16.19;83.72;102610.72;5092796;28;20028;-62
2023/10/04 08:29:34;;;;;;;14.75;3.92;;;;;;;16.22;83.96;102614.28;5092762;28;20477;-62
2023/10/04 08:32:00;;;;;;;12.10;3.75;;;;;;;16.17;84.30;102613.31;5092929;28;20032;-63
2023/10/04 08:34:25;;;;;;;13.30;4.20;;;;;;;16.17;83.71;102617.78;5092941;28;20431;-62
2023/10/04 08:36:51;;;;;;;21.00;4.40;;;;;;;16.07;82.88;102621.16;5092516;28;20098;-61
2023/10/04 08:39:17;;;;;;;13.18;3.92;;;;;;;16.11;83.31;102623.03;5092676;28;20062;-62
2023/10/04 08:41:42;;;;;;;15.70;4.03;;;;;;;16.18;83.82;102623.13;5092309;28;20056;-63
2023/10/04 08:44:08;;;;;;;13.55;3.92;;;;;;;16.32;83.02;102622.47;5091374;28;20074;-63
2023/10/04 08:46:37;;;;;;;14.13;4.07;;;;;;;16.49;83.31;102620.94;5092307;28;20047;-63
2023/10/04 08:49:05;;;;;;;10.32;4.00;;;;;;;16.56;82.08;102620.13;5092678;28;20115;-63
2023/10/04 08:51:50;;;;;;;12.60;4.55;;;;;;;16.71;81.91;102622.16;5093834;28;20020;-62
2023/10/04 08:54:23;;;;;;;16.80;4.07;;;;;;;16.80;81.44;102622.31;5097015;28;20028;-63
2023/10/04 08:56:59;;;;;;;14.98;4.00;;;;;;;16.79;81.07;102633.88;5095237;28;20466;-62
2023/10/04 08:59:26;;;;;;;12.55;3.65;;;;;;;16.82;80.16;102628.53;5096677;28;20110;-63
2023/10/04 09:01:52;;;;;;;13.98;3.63;;;;;;;16.87;80.57;102626.81;5096610;28;20039;-61
2023/10/04 09:04:22;;;;;;;13.82;4.30;;;;;;;16.92;80.24;102632.25;5096678;28;20419;-63
2023/10/04 09:06:47;;;;;;;12.73;4.25;;;;;;;17.11;80.14;102625.38;5096418;28;20085;-62
2023/10/04 09:09:15;;;;;;;13.10;4.10;;;;;;;17.26;79.92;102633.56;5096399;28;20469;-62
2023/10/04 09:11:41;;;;;;;13.07;4.28;;;;;;;17.41;78.87;102633.72;5096599;28;20040;-62
2023/10/04 09:14:07;;;;;;;13.88;3.75;;;;;;;17.39;78.81;102631.94;5096276;28;20035;-62
2023/10/04 09:16:32;;;;;;;13.98;3.88;;;;;;;17.36;78.02;102627.44;5096565;28;20032;-62
2023/10/04 09:19:17;;;;;;;15.45;4.18;;;;;;;17.37;78.81;102633.69;5096071;28;20473;-62
2023/10/04 09:21:43;;;;;;;12.75;3.83;;;;;;;17.43;78.57;102634.66;5096387;28;20028;-62
2023/10/04 09:24:14;;;;;;;11.15;4.10;;;;;;;17.65;78.15;102632.22;5096097;28;20024;-61
2023/10/04 09:27:01;;;;;;;14.43;4.10;;;;;;;17.84;78.49;102622.59;5096487;28;20395;-62
2023/10/04 09:29:35;;;;;;;15.13;4.20;;;;;;;17.88;77.14;102617.31;5095838;28;20039;-62
2023/10/04 09:32:02;;;;;;;11.00;4.00;;;;;;;17.99;75.88;102617.41;5096262;28;20024;-62
2023/10/04 09:34:28;;;;;;;15.05;4.07;;;;;;;18.02;75.09;102612.06;5095744;28;20028;-62
2023/10/04 09:36:54;;;;;;;14.60;4.25;;;;;;;18.13;74.66;102620.19;5095803;28;20035;-61
2023/10/04 09:39:28;;;;;;;13.57;3.80;;;;;;;18.23;73.50;102609.56;5095793;28;20049;-62
2023/10/04 09:41:58;;;;;;;12.50;4.15;;;;;;;18.37;73.47;102624.81;5095486;28;20052;-61
2023/10/04 09:44:26;;;;;;;11.50;3.63;;;;;;;18.39;73.64;102620.38;5095413;28;20028;-62
2023/10/04 09:47:03;;;;;;;13.85;4.20;;;;;;;18.49;72.92;102622.22;5095406;28;20020;-62
2023/10/04 09:49:37;;;;;;;13.18;3.95;;;;;;;18.60;73.34;102624.97;5095599;28;20470;-61
2023/10/04 09:52:15;;;;;;;10.55;3.85;;;;;;;18.61;73.26;102619.63;5095822;28;20367;-61
2023/10/04 09:54:40;;;;;;;13.52;3.90;;;;;;;18.51;72.97;102616.00;5095699;28;20032;-62
2023/10/04 09:57:08;;;;;;;11.80;4.15;;;;;;;18.40;72.98;102619.47;5095312;28;20430;-62
2023/10/04 09:59:37;;;;;;;14.52;4.35;;;;;;;18.33;72.86;102628.34;5095312;28;20028;-62
2023/10/04 10:02:05;;;;;;;14.57;4.53;;;;;;;18.19;72.71;102613.09;5095405;28;20173;-62
2023/10/04 10:04:33;;;;;;;11.70;4.10;;;;;;;18.30;73.38;102618.53;5094730;28;20339;-62
2023/10/04 10:07:11;;;;;;;12.27;4.00;;;;;;;18.50;73.32;102626.72;5093894;28;20013;-61
2023/10/04 10:10:13;;;;;;;13.55;3.90;;;;;;;18.59;72.73;102633.91;5095602;28;20016;-61
2023/10/04 10:12:38;;;;;;;14.95;4.00;;;;;;;18.65;72.12;102636.59;5095085;28;20031;-61
2023/10/04 10:15:04;;;;;;;15.93;5.03;;;;;;;18.61;72.06;102634.78;5095174;28;20028;-61
2023/10/04 10:17:33;;;;;;;11.75;3.88;;;;;;;18.59;71.84;102641.94;5095027;28;20071;-62
2023/10/04 10:19:59;;;;;;;12.88;3.70;;;;;;;18.51;71.84;102639.19;5095296;28;20036;-61
2023/10/04 10:22:25;;;;;;;15.40;4.43;;;;;;;18.45;72.08;102639.16;5094850;28;20430;-61
2023/10/04 10:24:56;;;;;;;14.40;4.28;;;;;;;18.37;72.13;102633.75;5094981;28;20032;-61
2023/10/04 10:27:23;;;;;;;12.47;3.87;;;;;;;18.38;71.12;102622.16;5095134;28;20031;-61
2023/10/04 10:29:50;;;;;;;14.75;4.22;;;;;;;18.46;70.98;102625.78;5094915;28;20111;-61
2023/10/04 10:32:20;;;;;;;11.48;3.95;;;;;;;18.49;71.47;102622.22;5094908;28;20024;-62
2023/10/04 10:34:48;;;;;;;9.70;3.67;;;;;;;18.50;71.17;102629.38;5094617;28;20031;-61
2023/10/04 10:37:19;;;;;;;13.68;4.18;;;;;;;18.47;71.39;102632.94;5094705;28;20023;-61
2023/10/04 10:40:04;;;;;;;13.80;4.05;;;;;;;18.47;70.59;102629.34;5094789;28;20020;-61
2023/10/04 10:43:06;;;;;;;16.65;4.15;;;;;;;18.57;71.20;102624.94;5094837;28;20036;-62
2023/10/04 10:45:31;;;;;;;11.75;3.90;;;;;;;18.74;70.06;102621.50;5094581;28;20020;-62
2023/10/04 10:47:58;;;;;;;17.33;4.47;;;;;;;18.88;70.05;102628.72;5094491;28;20084;-61
2023/10/04 10:50:38;;;;;;;11.63;4.10;;;;;;;19.05;69.42;102618.06;5094300;28;20024;-61
2023/10/04 10:53:06;;;;;;;11.13;3.90;;;;;;;19.02;67.25;102621.66;5093506;28;20381;-61
2023/10/04 10:55:35;;;;;;;13.85;4.45;;;;;;;19.00;67.86;102623.41;5094203;28;20362;-61
2023/10/04 10:58:01;;;;;;;13.13;4.20;;;;;;;19.04;68.09;102618.97;5094623;28;20031;-61
2023/10/04 11:00:32;;;;;;;13.20;4.15;;;;;;;19.19;66.42;102619.03;5094140;28;20027;-62
2023/10/04 11:02:58;;;;;;;13.77;4.00;;;;;;;19.33;67.17;102611.03;5094331;28;20050;-61
2023/10/04 11:05:25;;;;;;;11.50;4.38;;;;;;;19.41;65.27;102603.91;5093952;28;20027;-61
2023/10/04 11:07:52;;;;;;;13.38;4.20;;;;;;;19.57;65.13;102616.47;5093973;28;20032;-61
2023/10/04 11:10:23;;;;;;;12.45;4.30;;;;;;;19.69;64.89;102600.41;5093966;28;20020;-61
2023/10/04 11:12:51;;;;;;;11.07;3.92;;;;;;;19.88;64.09;102592.38;5094275;28;20089;-61
2023/10/04 11:15:20;;;;;;;11.00;4.40;;;;;;;19.93;62.30;102594.16;5093783;28;20028;-62
2023/10/04 11:17:46;;;;;;;11.75;4.20;;;;;;;19.89;60.35;102588.78;5094111;28;20031;-62
2023/10/04 11:20:17;;;;;;;11.68;4.47;;;;;;;19.83;60.40;102586.09;5093989;28;20114;-62
2023/10/04 11:22:44;;;;;;;14.02;4.90;;;;;;;19.86;60.60;102578.94;5094093;28;20078;-61
2023/10/04 11:25:11;;;;;;;14.85;4.72;;;;;;;19.94;61.23;102584.31;5092565;28;20421;-62